Terminal Aerodrome Forecast
Issued by NWS

Home | Current Version | Previous Version | Text Only | Print | Product List | Glossary On
Versions: 1 2 3 4 5 6 7 8 9 10 11 12 13 14 15 16 17 18 19 20 21 22 23 24 25 26 27 28
000
FTUS43 KDLH 192300
TAFBRD
TAF
KBRD 192335Z 2000/2024 31010KT P6SM SKC
     FM200500 28007KT P6SM SCT025
     FM201500 34011G17KT P6SM SCT030
     FM202000 02007KT P6SM SCT140=

USA.gov is the U.S. government's official web portal to all federal, state and local government web resources and services.